Terminal Aerodrome Forecast
Issued by NWS Melbourne, FL

Home | Current Version | Previous Version | Text Only | Print | Product List | Glossary On
Versions: 1 2 3 4 5 6 7 8 9 10 11 12 13 14 15 16 17 18 19 20 21 22 23 24 25
000
FTUS42 KMLB 161100
TAFMCO
TAF
KMCO 161126Z 1612/1712 VRB03KT P6SM FEW080 FEW120 BKN250
     FM161400 27005KT P6SM SCT030 BKN200
     FM161800 28007KT P6SM VCTS SCT040CB BKN080
      TEMPO 1618/1621 3SM TSRA BKN035CB OVC050
     FM170000 26004KT P6SM SCT080 OVC150=

USA.gov is the U.S. government's official web portal to all federal, state and local government web resources and services.